Time;durP1;ratioP1;P1;durP2;ratioP2;P2;SDS_P1;SDS_P2;PMS_P1;PMS_P2;Temp;Humidity;BMP_temperature;BMP_pressure;BME280_temperature;BME280_humidity;BME280_pressure;Samples;Min_cycle;Max_cycle;Signal;HPM_P1;HPM_P2
2023/01/17 00:01:46;;;;;;;20.10;10.23;;;;;;;2.15;100.00;97411.25;5078194;23;20271;-68
2023/01/17 00:09:54;;;;;;;21.67;10.43;;;;;;;2.22;100.00;97391.22;5061064;23;20205;-67
2023/01/17 00:12:26;;;;;;;17.17;9.40;;;;;;;2.21;100.00;97400.09;5067812;23;20278;-66
2023/01/17 00:14:54;;;;;;;19.37;9.67;;;;;;;2.19;100.00;97387.16;5075529;23;22312;-64
2023/01/17 00:17:22;;;;;;;18.23;9.03;;;;;;;2.25;100.00;97391.72;5082393;23;20361;-67
2023/01/17 01:35:28;;;;;;;27.43;13.40;;;;;;;2.57;100.00;97282.38;5061172;23;20200;-64
2023/01/17 01:37:54;;;;;;;31.43;14.23;;;;;;;2.59;100.00;97282.22;5055157;23;20215;-65
2023/01/17 01:40:21;;;;;;;27.80;13.67;;;;;;;2.56;100.00;97274.69;5066738;23;20204;-69
2023/01/17 01:42:52;;;;;;;29.33;14.53;;;;;;;2.60;100.00;97270.72;5043282;23;20609;-67
2023/01/17 01:45:25;;;;;;;28.33;13.17;;;;;;;2.67;100.00;97256.75;5065558;23;20207;-66
2023/01/17 01:47:55;;;;;;;27.77;14.60;;;;;;;2.70;100.00;97266.06;5058980;23;20210;-69
2023/01/17 01:50:22;;;;;;;33.20;15.17;;;;;;;2.63;100.00;97252.81;5067055;23;20200;-66
2023/01/17 01:52:52;;;;;;;27.13;13.97;;;;;;;2.65;100.00;97245.59;5042373;23;20204;-68
2023/01/17 01:55:26;;;;;;;28.57;14.20;;;;;;;2.62;100.00;97243.31;5046745;23;21180;-66
2023/01/17 01:57:55;;;;;;;31.87;14.83;;;;;;;2.63;100.00;97239.69;5073873;23;20204;-67
2023/01/17 02:00:28;;;;;;;29.03;14.13;;;;;;;2.62;100.00;97240.69;5054429;23;20340;-67
2023/01/17 02:02:57;;;;;;;30.60;14.47;;;;;;;2.62;100.00;97232.81;5052704;23;20421;-69
2023/01/17 02:05:25;;;;;;;30.93;14.83;;;;;;;2.69;100.00;97235.53;5055880;23;20294;-69
2023/01/17 02:07:58;;;;;;;34.23;14.90;;;;;;;2.71;100.00;97236.19;5043098;23;20219;-68
2023/01/17 02:10:24;;;;;;;30.30;14.23;;;;;;;2.76;100.00;97236.47;5043221;23;20717;-69
2023/01/17 02:12:52;;;;;;;32.87;14.17;;;;;;;2.70;100.00;97231.94;5059474;23;21432;-66
2023/01/17 02:15:22;;;;;;;29.60;14.20;;;;;;;2.70;100.00;97231.94;5066552;23;20271;-67
2023/01/17 02:18:27;;;;;;;27.57;14.13;;;;;;;2.71;100.00;97233.56;5031771;23;21323;-67
2023/01/17 02:21:02;;;;;;;32.50;14.73;;;;;;;2.72;100.00;97229.97;5060667;23;20203;-67
2023/01/17 02:23:43;;;;;;;27.27;14.63;;;;;;;2.77;100.00;97224.19;5078780;23;22104;-67
2023/01/17 02:26:29;;;;;;;30.97;14.43;;;;;;;2.73;100.00;97227.16;5057544;23;22167;-69
2023/01/17 02:29:14;;;;;;;35.67;14.87;;;;;;;2.86;100.00;97221.31;5031440;23;20710;-68
2023/01/17 02:31:51;;;;;;;35.93;15.67;;;;;;;2.69;100.00;97210.13;5076693;23;20226;-70
2023/01/17 02:34:26;;;;;;;31.00;13.50;;;;;;;2.82;100.00;97208.72;5046938;23;20216;-67
2023/01/17 02:37:00;;;;;;;34.10;15.63;;;;;;;2.77;100.00;97211.88;5063694;23;20211;-67
2023/01/17 02:39:31;;;;;;;32.57;15.77;;;;;;;2.79;100.00;97198.56;5053960;23;20373;-68
2023/01/17 02:42:04;;;;;;;29.87;14.73;;;;;;;2.74;100.00;97207.78;5043140;23;20929;-68
2023/01/17 02:44:39;;;;;;;33.00;14.47;;;;;;;2.77;100.00;97206.63;5047197;23;22168;-68
2023/01/17 02:47:24;;;;;;;29.37;13.87;;;;;;;2.84;100.00;97210.19;5057881;23;20277;-67
2023/01/17 02:49:52;;;;;;;32.47;13.97;;;;;;;2.78;100.00;97207.44;5039062;23;20235;-66
2023/01/17 02:52:42;;;;;;;27.27;13.33;;;;;;;2.83;100.00;97205.09;5053842;23;20532;-69
2023/01/17 02:55:15;;;;;;;31.87;14.10;;;;;;;2.75;100.00;97208.59;5041767;23;20214;-67
2023/01/17 02:58:15;;;;;;;30.67;14.60;;;;;;;2.75;100.00;97201.53;5043353;23;21468;-68
2023/01/17 03:00:45;;;;;;;28.07;13.60;;;;;;;2.68;100.00;97197.97;5048533;23;20329;-67
2023/01/17 03:03:20;;;;;;;27.40;12.93;;;;;;;2.81;100.00;97193.94;5065771;23;22904;-68
2023/01/17 03:05:58;;;;;;;28.17;13.90;;;;;;;2.71;100.00;97196.81;5056968;23;20398;-67
2023/01/17 03:08:26;;;;;;;28.73;14.00;;;;;;;2.74;100.00;97193.84;5034162;23;20210;-67
2023/01/17 03:10:53;;;;;;;29.87;13.40;;;;;;;2.74;100.00;97191.22;5032664;23;21278;-67
2023/01/17 03:13:19;;;;;;;31.63;13.23;;;;;;;2.67;100.00;97195.53;5037272;23;21370;-67
2023/01/17 03:15:46;;;;;;;26.53;13.70;;;;;;;2.63;100.00;97194.25;5051422;23;20281;-68
2023/01/17 03:18:14;;;;;;;27.87;12.50;;;;;;;2.72;100.00;97193.22;5032572;23;22283;-68
2023/01/17 03:20:41;;;;;;;26.83;12.97;;;;;;;2.72;100.00;97188.78;5044601;23;20214;-68
2023/01/17 03:23:07;;;;;;;29.23;12.30;;;;;;;2.68;100.00;97192.72;5051453;23;22547;-67
2023/01/17 03:25:34;;;;;;;29.33;13.27;;;;;;;2.70;100.00;97196.00;5043940;23;20264;-66
2023/01/17 03:28:01;;;;;;;23.67;11.97;;;;;;;2.79;100.00;97190.72;5075679;23;21819;-68
2023/01/17 03:30:27;;;;;;;26.13;12.87;;;;;;;2.81;100.00;97180.81;5054580;23;20699;-68
2023/01/17 03:32:54;;;;;;;30.23;13.10;;;;;;;2.77;100.00;97175.13;5036460;23;23206;-67
2023/01/17 03:35:21;;;;;;;24.50;12.93;;;;;;;2.74;100.00;97185.97;5029470;23;20205;-67
2023/01/17 03:37:47;;;;;;;26.73;12.20;;;;;;;2.76;100.00;97189.22;5032447;23;20215;-69
2023/01/17 03:40:14;;;;;;;27.47;12.03;;;;;;;2.75;100.00;97169.22;5053987;23;20275;-69
2023/01/17 03:42:41;;;;;;;27.17;11.93;;;;;;;2.71;100.00;97176.63;5051280;23;21993;-67
2023/01/17 03:45:08;;;;;;;27.47;13.00;;;;;;;2.73;100.00;97177.25;5051928;23;21983;-67
2023/01/17 03:47:35;;;;;;;25.87;12.40;;;;;;;2.73;100.00;97182.50;5065957;23;20204;-68
2023/01/17 03:50:02;;;;;;;25.70;11.80;;;;;;;2.73;100.00;97179.06;5057353;23;20229;-67
2023/01/17 03:52:29;;;;;;;23.43;11.30;;;;;;;2.72;100.00;97182.72;5032618;23;20228;-67
2023/01/17 03:54:55;;;;;;;26.43;11.90;;;;;;;2.82;100.00;97187.72;5035790;23;20204;-68
2023/01/17 03:57:22;;;;;;;24.67;11.50;;;;;;;2.72;100.00;97177.47;5054383;23;23391;-69
2023/01/17 03:59:48;;;;;;;22.73;11.80;;;;;;;2.74;100.00;97175.47;5049944;23;20207;-68
2023/01/17 04:02:16;;;;;;;23.17;11.50;;;;;;;2.77;100.00;97177.75;5056648;23;20201;-68
2023/01/17 04:04:42;;;;;;;24.93;11.17;;;;;;;2.78;100.00;97187.25;5053355;23;20274;-68
2023/01/17 04:07:09;;;;;;;26.23;12.67;;;;;;;2.74;100.00;97185.97;5048057;23;20219;-67
2023/01/17 04:09:35;;;;;;;23.27;11.33;;;;;;;2.74;100.00;97175.47;5039949;23;20208;-71
2023/01/17 04:12:02;;;;;;;22.43;11.00;;;;;;;2.84;100.00;97186.53;5048245;23;20339;-68
2023/01/17 04:14:29;;;;;;;23.60;10.87;;;;;;;2.84;100.00;97186.53;5035428;23;20324;-69
2023/01/17 04:16:56;;;;;;;23.60;11.03;;;;;;;2.87;100.00;97180.94;5050447;23;21131;-67
2023/01/17 04:19:22;;;;;;;22.33;11.33;;;;;;;2.78;100.00;97181.97;5038639;23;20915;-69
2023/01/17 04:21:49;;;;;;;20.07;11.17;;;;;;;2.70;100.00;97172.38;5052277;23;20215;-66
2023/01/17 04:24:16;;;;;;;23.13;11.23;;;;;;;2.64;100.00;97177.50;5037859;23;20200;-68
2023/01/17 04:26:43;;;;;;;21.47;10.53;;;;;;;2.66;100.00;97173.72;5055810;23;20291;-67
2023/01/17 04:29:10;;;;;;;22.77;11.00;;;;;;;2.77;100.00;97176.94;5018558;23;20276;-68
2023/01/17 04:31:37;;;;;;;21.10;10.67;;;;;;;2.80;100.00;97185.25;5053688;23;20208;-67
2023/01/17 04:34:03;;;;;;;20.47;10.80;;;;;;;2.84;100.00;97180.47;5052687;23;21730;-67
2023/01/17 04:36:30;;;;;;;22.27;11.20;;;;;;;2.76;100.00;97173.47;5048723;23;20347;-68
2023/01/17 04:38:57;;;;;;;21.17;10.60;;;;;;;2.76;100.00;97178.72;5048876;23;20231;-66
2023/01/17 04:41:23;;;;;;;20.37;10.57;;;;;;;2.74;100.00;97180.72;5046896;23;21173;-61
2023/01/17 04:43:50;;;;;;;24.30;11.30;;;;;;;2.71;100.00;97181.06;5049065;23;20207;-64
2023/01/17 04:46:16;;;;;;;23.77;11.73;;;;;;;2.77;100.00;97190.06;5055269;23;20953;-65
2023/01/17 04:48:43;;;;;;;23.57;11.07;;;;;;;2.65;100.00;97197.53;5050837;23;20647;-66
2023/01/17 04:51:09;;;;;;;21.90;10.57;;;;;;;2.67;100.00;97195.53;5052269;23;20328;-65
2023/01/17 04:53:36;;;;;;;24.83;11.20;;;;;;;2.60;100.00;97199.84;5044667;23;21419;-65
2023/01/17 04:56:03;;;;;;;28.37;11.20;;;;;;;2.62;100.00;97196.06;5067855;23;20208;-65
2023/01/17 04:58:30;;;;;;;23.13;10.67;;;;;;;2.65;100.00;97213.28;5051359;23;21265;-65
2023/01/17 05:01:00;;;;;;;21.53;10.90;;;;;;;2.66;100.00;97209.66;5060436;23;21661;-66
2023/01/17 05:03:28;;;;;;;21.10;10.23;;;;;;;2.70;100.00;97200.44;5038797;23;20215;-65
2023/01/17 05:05:54;;;;;;;20.77;10.37;;;;;;;2.66;100.00;97209.66;5057795;23;21609;-65
2023/01/17 05:08:21;;;;;;;22.33;11.00;;;;;;;2.62;100.00;97205.72;5054674;23;20366;-65
2023/01/17 05:10:48;;;;;;;22.80;10.93;;;;;;;2.65;100.00;97202.78;5045691;23;20208;-65
2023/01/17 05:13:14;;;;;;;22.90;10.90;;;;;;;2.59;100.00;97198.22;5065256;23;20294;-64
2023/01/17 05:15:41;;;;;;;23.77;11.07;;;;;;;2.59;100.00;97204.28;5057424;23;20207;-67
2023/01/17 05:18:12;;;;;;;19.57;11.00;;;;;;;2.59;100.00;97208.72;5029971;23;25630;-66
2023/01/17 05:20:38;;;;;;;24.60;11.30;;;;;;;2.61;100.00;97212.78;5053405;23;20219;-66
2023/01/17 05:23:05;;;;;;;22.00;10.63;;;;;;;2.59;100.00;97234.97;5055203;23;20284;-66
2023/01/17 05:25:32;;;;;;;23.27;10.63;;;;;;;2.53;100.00;97218.91;5026637;23;22180;-65
2023/01/17 05:27:59;;;;;;;23.27;11.40;;;;;;;2.53;100.00;97221.53;5021406;23;20204;-66
2023/01/17 05:30:27;;;;;;;22.90;10.47;;;;;;;2.53;100.00;97211.06;5034491;23;20271;-65
2023/01/17 05:32:54;;;;;;;21.30;10.63;;;;;;;2.49;100.00;97222.88;5046320;23;20282;-65
2023/01/17 05:35:23;;;;;;;28.10;14.33;;;;;;;2.43;100.00;97220.94;5062455;23;20218;-66
2023/01/17 05:37:50;;;;;;;25.17;11.37;;;;;;;2.47;100.00;97224.03;5083532;23;26589;-66
2023/01/17 05:40:20;;;;;;;26.40;12.13;;;;;;;2.49;100.00;97219.44;5045958;23;21687;-67
2023/01/17 05:42:48;;;;;;;26.87;11.47;;;;;;;2.41;100.00;97217.69;5062982;23;20465;-68
2023/01/17 05:45:16;;;;;;;25.07;12.23;;;;;;;2.38;100.00;97212.75;5057028;23;20243;-68
2023/01/17 05:47:44;;;;;;;47.20;23.70;;;;;;;2.42;100.00;97226.38;5050362;23;20267;-66
2023/01/17 05:50:12;;;;;;;98.47;48.70;;;;;;;2.42;100.00;97229.81;5029528;23;20304;-65
2023/01/17 05:52:39;;;;;;;87.10;43.27;;;;;;;2.35;100.00;97228.84;5047032;23;20632;-65
2023/01/17 05:55:07;;;;;;;110.80;52.03;;;;;;;2.38;100.00;97231.13;5068012;23;21602;-66
2023/01/17 05:57:34;;;;;;;97.57;47.03;;;;;;;2.37;100.00;97220.81;5031285;23;22399;-66
2023/01/17 06:00:00;;;;;;;153.70;68.97;;;;;;;2.27;100.00;97223.63;5047269;23;20353;-68
2023/01/17 06:02:27;;;;;;;138.00;58.13;;;;;;;2.23;100.00;97235.50;5057324;23;20211;-66
2023/01/17 06:04:54;;;;;;;116.00;48.07;;;;;;;2.15;100.00;97238.13;5049148;23;20215;-67
2023/01/17 06:07:21;;;;;;;83.13;32.17;;;;;;;2.10;100.00;97236.84;5076240;23;20325;-69
2023/01/17 06:09:47;;;;;;;60.73;24.27;;;;;;;2.12;100.00;97228.81;5047858;23;22318;-68
2023/01/17 06:12:14;;;;;;;60.73;23.43;;;;;;;2.05;100.00;97233.91;5046496;23;20384;-65
2023/01/17 06:14:40;;;;;;;55.40;22.07;;;;;;;1.94;100.00;97234.28;5032257;23;22322;-67
2023/01/17 06:17:07;;;;;;;45.17;18.23;;;;;;;2.06;100.00;97246.06;5047753;23;20362;-65
2023/01/17 06:19:33;;;;;;;47.07;16.57;;;;;;;2.05;100.00;97236.53;5037946;23;20247;-67
2023/01/17 06:22:00;;;;;;;41.40;15.17;;;;;;;2.02;100.00;97239.50;5065131;23;20212;-64
2023/01/17 06:24:27;;;;;;;36.33;13.80;;;;;;;1.95;100.00;97222.81;5065799;23;20208;-63
2023/01/17 06:26:53;;;;;;;29.40;12.67;;;;;;;1.92;100.00;97217.06;5066220;23;20386;-65
2023/01/17 06:29:20;;;;;;;25.57;11.70;;;;;;;1.96;100.00;97228.88;5056478;23;20207;-65
2023/01/17 06:31:46;;;;;;;23.03;11.23;;;;;;;1.92;100.00;97223.16;5048612;23;20811;-66
2023/01/17 06:34:13;;;;;;;29.13;11.23;;;;;;;1.84;100.00;97225.78;5066347;23;21742;-67
2023/01/17 06:36:39;;;;;;;22.30;11.27;;;;;;;1.77;100.00;97224.84;5062797;23;20231;-66
2023/01/17 06:39:06;;;;;;;25.97;11.63;;;;;;;1.82;100.00;97227.75;5048918;23;20353;-67
2023/01/17 06:41:33;;;;;;;22.80;11.03;;;;;;;1.87;100.00;97241.19;5077176;23;20967;-65
2023/01/17 06:43:59;;;;;;;23.03;10.70;;;;;;;1.81;100.00;97241.88;5064652;23;22685;-64
2023/01/17 06:46:26;;;;;;;23.97;10.90;;;;;;;1.78;100.00;97244.81;5049324;23;20288;-65
2023/01/17 06:48:53;;;;;;;22.50;10.87;;;;;;;1.85;100.00;97246.63;5022256;23;20224;-69
2023/01/17 06:51:20;;;;;;;22.57;10.90;;;;;;;1.88;100.00;97262.00;5046820;23;20449;-65
2023/01/17 06:53:48;;;;;;;22.87;11.03;;;;;;;1.92;100.00;97262.50;5057543;23;21669;-66
2023/01/17 06:56:14;;;;;;;25.80;11.10;;;;;;;1.91;100.00;97268.72;5062038;23;20660;-62
2023/01/17 06:58:41;;;;;;;21.80;10.47;;;;;;;1.87;100.00;97267.41;5053559;23;20374;-62
2023/01/17 07:01:09;;;;;;;26.17;10.03;;;;;;;1.93;100.00;97271.97;5053852;23;23402;-63
2023/01/17 07:03:36;;;;;;;21.90;10.27;;;;;;;1.93;100.00;97277.22;5043105;23;20782;-64
2023/01/17 07:06:04;;;;;;;23.40;11.20;;;;;;;1.99;100.00;97286.22;5045675;23;20211;-64
2023/01/17 07:08:31;;;;;;;25.43;11.10;;;;;;;1.99;100.00;97289.69;5056679;23;20215;-65
2023/01/17 07:11:00;;;;;;;22.30;10.13;;;;;;;1.99;100.00;97286.22;5071999;23;21530;-65
2023/01/17 07:13:27;;;;;;;22.60;11.17;;;;;;;2.05;100.00;97286.34;5058914;23;20263;-63
2023/01/17 07:15:54;;;;;;;22.40;10.53;;;;;;;2.08;100.00;97282.56;5066382;23;21788;-67
2023/01/17 07:18:23;;;;;;;21.07;10.33;;;;;;;2.06;100.00;97284.53;5059990;23;20270;-64
2023/01/17 07:20:51;;;;;;;21.63;11.03;;;;;;;2.05;100.00;97275.88;5065463;23;20477;-64
2023/01/17 07:23:19;;;;;;;22.33;10.80;;;;;;;2.04;100.00;97283.94;5089314;23;20215;-64
2023/01/17 07:25:52;;;;;;;18.47;9.73;;;;;;;2.01;100.00;97285.06;5038725;23;20207;-64
2023/01/17 07:28:22;;;;;;;22.33;10.20;;;;;;;2.00;100.00;97272.94;5031986;23;20632;-65
2023/01/17 07:30:49;;;;;;;22.70;10.60;;;;;;;2.10;100.00;97273.56;5064565;23;20208;-65
2023/01/17 07:33:16;;;;;;;23.20;10.40;;;;;;;2.02;100.00;97275.41;5054034;23;21610;-64
2023/01/17 07:35:43;;;;;;;22.17;9.97;;;;;;;2.07;100.00;97278.34;5086136;23;20311;-66
2023/01/17 07:38:14;;;;;;;20.73;10.10;;;;;;;2.06;100.00;97267.03;5065614;23;20629;-65
2023/01/17 07:40:41;;;;;;;19.17;9.80;;;;;;;2.04;100.00;97258.50;5048983;23;21249;-64
2023/01/17 07:43:15;;;;;;;23.57;10.17;;;;;;;2.16;100.00;97264.19;5049864;23;20742;-66
2023/01/17 07:45:49;;;;;;;20.43;9.20;;;;;;;2.19;100.00;97258.59;5060622;23;25548;-66
2023/01/17 07:48:18;;;;;;;18.10;8.87;;;;;;;2.28;100.00;97262.03;5061177;23;22025;-66
2023/01/17 07:50:54;;;;;;;22.17;9.70;;;;;;;2.29;100.00;97263.66;5044036;23;20208;-64
2023/01/17 07:53:25;;;;;;;19.53;9.00;;;;;;;2.30;100.00;97273.97;5080306;23;20204;-65
2023/01/17 07:55:51;;;;;;;18.33;9.00;;;;;;;2.29;100.00;97280.22;5053798;23;20216;-67
2023/01/17 07:58:19;;;;;;;19.53;9.07;;;;;;;2.38;100.00;97280.97;5048631;23;20722;-64
2023/01/17 08:00:46;;;;;;;22.23;9.10;;;;;;;2.47;100.00;97287.84;5051825;23;20204;-66
2023/01/17 08:03:15;;;;;;;22.13;9.43;;;;;;;2.49;100.00;97298.97;5056787;23;20270;-65
2023/01/17 08:05:43;;;;;;;18.83;9.10;;;;;;;2.59;100.00;97318.97;5052281;23;20830;-68
2023/01/17 08:08:10;;;;;;;17.83;8.70;;;;;;;2.60;100.00;97320.56;5060925;23;20342;-68
2023/01/17 08:10:36;;;;;;;22.97;9.67;;;;;;;2.58;100.00;97319.97;5042779;23;20211;-67
2023/01/17 08:13:03;;;;;;;19.67;9.20;;;;;;;2.62;100.00;97334.34;5049674;23;20270;-64
2023/01/17 08:15:30;;;;;;;19.90;8.60;;;;;;;2.67;100.00;97326.78;5050264;23;20353;-64
2023/01/17 08:17:57;;;;;;;31.17;10.13;;;;;;;2.76;100.00;97338.88;5041924;23;20270;-65
2023/01/17 08:20:24;;;;;;;17.53;8.23;;;;;;;2.79;100.00;97325.41;5048045;23;20204;-64
2023/01/17 08:22:54;;;;;;;16.40;8.17;;;;;;;2.87;100.00;97332.44;5035749;23;20216;-61
2023/01/17 08:25:24;;;;;;;16.10;7.80;;;;;;;3.01;100.00;97330.88;5066259;23;20204;-63
2023/01/17 08:27:50;;;;;;;19.33;8.30;;;;;;;3.09;100.00;97326.41;5056355;23;20208;-63
2023/01/17 08:30:18;;;;;;;16.80;7.83;;;;;;;3.32;100.00;97330.81;5011689;23;20390;-64
2023/01/17 08:32:44;;;;;;;14.97;7.60;;;;;;;3.35;100.00;97322.59;5045044;23;20374;-64
2023/01/17 08:35:11;;;;;;;15.17;7.50;;;;;;;3.53;100.00;97322.28;5061289;23;21260;-63
2023/01/17 08:37:38;;;;;;;19.00;7.43;;;;;;;3.71;100.00;97322.78;5050401;23;20219;-64
2023/01/17 08:40:06;;;;;;;20.53;7.50;;;;;;;3.83;100.00;97320.53;5065411;23;20918;-65
2023/01/17 08:42:39;;;;;;;15.67;7.37;;;;;;;4.06;100.00;97319.66;5069328;23;25840;-64
2023/01/17 08:45:07;;;;;;;16.13;7.70;;;;;;;4.42;99.58;97319.75;5071445;23;20359;-64
2023/01/17 08:47:34;;;;;;;13.90;6.50;;;;;;;4.52;97.61;97315.03;5133223;23;20220;-63
2023/01/17 08:50:02;;;;;;;15.50;6.93;;;;;;;4.65;96.05;97309.91;5061363;23;23086;-67
2023/01/17 08:52:29;;;;;;;13.13;6.57;;;;;;;4.88;93.86;97310.78;5051508;23;20310;-63
2023/01/17 08:54:56;;;;;;;13.27;6.27;;;;;;;5.02;91.85;97308.09;5022785;23;20239;-66
2023/01/17 08:57:22;;;;;;;12.33;6.30;;;;;;;4.96;91.78;97297.47;5058137;23;20204;-64
2023/01/17 08:59:49;;;;;;;13.73;6.67;;;;;;;4.73;92.79;97302.91;5098971;23;20263;-64
2023/01/17 09:02:19;;;;;;;13.87;6.13;;;;;;;4.45;93.56;97300.97;5032812;23;20219;-63
2023/01/17 09:04:46;;;;;;;14.80;6.40;;;;;;;4.09;95.29;97300.88;5050543;23;20272;-66
2023/01/17 09:07:14;;;;;;;17.27;6.73;;;;;;;3.98;97.28;97294.25;5046204;23;20216;-63
2023/01/17 09:09:41;;;;;;;12.13;6.27;;;;;;;3.85;97.32;97292.25;5073704;23;21977;-65
2023/01/17 09:12:08;;;;;;;17.00;6.93;;;;;;;3.67;99.54;97300.47;5050806;23;20215;-65
2023/01/17 09:14:34;;;;;;;14.33;7.43;;;;;;;3.57;99.93;97294.66;5073830;23;20215;-64
2023/01/17 09:17:01;;;;;;;13.87;7.23;;;;;;;3.73;99.36;97301.56;5039652;23;20204;-67
2023/01/17 09:19:28;;;;;;;19.03;6.70;;;;;;;3.65;100.00;97297.19;5052717;23;20219;-64
2023/01/17 09:21:55;;;;;;;15.93;8.00;;;;;;;3.58;99.97;97305.00;5058193;23;20234;-64
2023/01/17 09:24:21;;;;;;;20.50;7.57;;;;;;;3.63;100.00;97304.47;5044256;23;21557;-62
2023/01/17 09:26:48;;;;;;;12.10;6.57;;;;;;;3.69;99.94;97303.72;5056061;23;20207;-61
2023/01/17 09:29:17;;;;;;;16.03;7.33;;;;;;;3.65;100.00;97301.63;5051496;23;20477;-64
2023/01/17 09:31:46;;;;;;;17.57;7.37;;;;;;;3.63;100.00;97306.25;5054273;23;21135;-66
2023/01/17 09:34:13;;;;;;;15.40;7.23;;;;;;;3.61;100.00;97311.72;5048193;23;23568;-69
2023/01/17 09:36:40;;;;;;;19.47;7.13;;;;;;;3.65;100.00;97320.84;5073052;23;20243;-64
2023/01/17 09:39:08;;;;;;;14.73;7.23;;;;;;;3.68;100.00;97328.41;5055164;23;20204;-68
2023/01/17 09:41:43;;;;;;;12.93;6.90;;;;;;;3.70;100.00;97323.78;5043620;23;20255;-65
2023/01/17 09:44:22;;;;;;;17.00;7.40;;;;;;;3.67;99.74;97324.13;5036064;23;20628;-60
2023/01/17 09:46:50;;;;;;;13.27;6.50;;;;;;;3.74;99.70;97327.69;5059034;23;20235;-63
2023/01/17 09:49:30;;;;;;;15.83;7.40;;;;;;;3.65;99.68;97320.84;5029789;23;20212;-64
2023/01/17 09:51:56;;;;;;;15.17;6.67;;;;;;;3.73;99.58;97327.88;5035320;23;20331;-64
2023/01/17 09:54:26;;;;;;;16.20;6.40;;;;;;;3.76;99.65;97323.06;5055591;23;20222;-63
2023/01/17 09:57:03;;;;;;;18.70;6.97;;;;;;;3.61;99.45;97327.47;5047655;23;25441;-63
2023/01/17 09:59:42;;;;;;;11.57;6.20;;;;;;;3.57;100.00;97326.19;5045966;23;20219;-65
2023/01/17 10:02:48;;;;;;;12.53;6.37;;;;;;;3.58;99.76;97338.34;5058404;23;20208;-65
2023/01/17 10:05:29;;;;;;;14.17;7.13;;;;;;;3.70;98.91;97338.72;5075707;23;20713;-66
2023/01/17 10:08:05;;;;;;;16.20;7.13;;;;;;;3.58;99.57;97335.69;5052052;23;20343;-65
2023/01/17 10:11:01;;;;;;;16.23;6.27;;;;;;;3.68;99.41;97333.66;5047188;23;20469;-66
2023/01/17 10:13:36;;;;;;;14.77;7.13;;;;;;;3.63;99.63;97341.28;5046058;23;21710;-63
2023/01/17 10:16:19;;;;;;;14.33;6.70;;;;;;;3.73;100.00;97354.16;5076380;23;20312;-64
2023/01/17 10:19:11;;;;;;;17.73;7.17;;;;;;;3.75;99.29;97346.94;5062829;23;20606;-65
2023/01/17 10:22:03;;;;;;;15.07;7.23;;;;;;;3.78;98.14;97343.94;5052812;23;21528;-65
2023/01/17 10:24:44;;;;;;;15.73;7.83;;;;;;;3.75;98.97;97337.22;5032024;23;20385;-65
2023/01/17 10:27:19;;;;;;;13.43;6.77;;;;;;;3.72;99.00;97348.09;5055231;23;20204;-64
2023/01/17 10:29:47;;;;;;;14.50;7.00;;;;;;;3.70;98.38;97339.56;5044746;23;20206;-63
2023/01/17 10:32:14;;;;;;;14.87;6.60;;;;;;;3.70;99.11;97344.81;5062902;23;20373;-66
2023/01/17 10:34:50;;;;;;;12.17;6.30;;;;;;;3.72;98.19;97353.38;5057316;23;20238;-66
2023/01/17 10:37:19;;;;;;;17.10;7.60;;;;;;;3.80;98.73;97349.84;5023664;23;23295;-65
2023/01/17 10:39:48;;;;;;;16.03;7.40;;;;;;;3.84;98.91;97359.00;5066042;23;20204;-63
2023/01/17 10:42:22;;;;;;;18.60;8.57;;;;;;;3.93;98.41;97351.84;5060345;23;20205;-62
2023/01/17 10:44:59;;;;;;;16.67;7.43;;;;;;;3.99;97.15;97359.03;5048289;23;20699;-65
2023/01/17 10:47:27;;;;;;;17.80;7.53;;;;;;;4.01;98.21;97357.03;5060199;23;20211;-68
2023/01/17 10:49:57;;;;;;;15.43;7.97;;;;;;;4.00;97.09;97352.75;5037447;23;20251;-70
2023/01/17 10:52:46;;;;;;;23.47;9.37;;;;;;;4.01;97.14;97360.47;5070065;23;20212;-68
2023/01/17 10:55:15;;;;;;;15.73;7.60;;;;;;;4.07;96.19;97358.13;5063352;23;22172;-68
2023/01/17 10:57:43;;;;;;;15.73;7.10;;;;;;;4.01;96.32;97357.03;5057021;23;22769;-72
2023/01/17 11:00:40;;;;;;;16.20;7.37;;;;;;;3.99;95.83;97346.69;5033235;23;23185;-70
2023/01/17 11:03:09;;;;;;;14.57;7.20;;;;;;;3.91;97.00;97356.47;5024617;23;20203;-70
2023/01/17 11:05:36;;;;;;;14.33;7.07;;;;;;;3.91;96.75;97357.31;5061164;23;20238;-68
2023/01/17 11:08:14;;;;;;;16.27;7.20;;;;;;;3.92;96.43;97352.84;5073384;23;20208;-69
2023/01/17 11:11:02;;;;;;;14.20;7.33;;;;;;;3.98;96.83;97365.25;5060349;23;20207;-69
2023/01/17 11:13:31;;;;;;;14.67;6.67;;;;;;;4.01;96.14;97362.31;5081818;23;20203;-71
2023/01/17 11:16:02;;;;;;;17.47;7.10;;;;;;;4.00;97.00;97360.66;5058105;23;21534;-69
2023/01/17 11:18:31;;;;;;;17.57;7.07;;;;;;;4.06;96.23;97359.13;5037147;23;20226;-69
2023/01/17 11:21:20;;;;;;;19.77;7.60;;;;;;;4.01;96.22;97362.31;5056819;23;20613;-69
2023/01/17 11:23:48;;;;;;;16.50;7.60;;;;;;;4.09;97.08;97356.94;5032885;23;20428;-70
2023/01/17 11:26:26;;;;;;;15.50;7.27;;;;;;;4.12;97.21;97353.97;5053493;23;20208;-69
2023/01/17 11:29:25;;;;;;;15.00;8.43;;;;;;;4.18;95.58;97358.50;5056447;23;21194;-69
2023/01/17 11:31:57;;;;;;;14.30;6.83;;;;;;;4.13;95.58;97355.59;5054048;23;20203;-69
2023/01/17 11:34:26;;;;;;;21.07;8.00;;;;;;;4.16;95.74;97363.13;5033319;23;21139;-70
2023/01/17 11:37:16;;;;;;;16.23;7.37;;;;;;;4.17;95.51;97366.59;5071766;23;20649;-68
2023/01/17 11:39:46;;;;;;;16.53;7.80;;;;;;;4.19;94.82;97370.69;5089476;23;20203;-72
2023/01/17 11:42:33;;;;;;;12.97;6.83;;;;;;;4.25;95.21;97368.31;5050095;23;21718;-72
2023/01/17 11:45:23;;;;;;;16.40;7.40;;;;;;;4.25;94.60;97368.31;5054453;23;20270;-77
2023/01/17 11:48:11;;;;;;;14.73;7.03;;;;;;;4.34;95.01;97369.88;5037282;23;20216;-70
2023/01/17 11:50:46;;;;;;;19.87;8.20;;;;;;;4.43;93.74;97374.03;5052887;23;20711;-70
2023/01/17 11:53:23;;;;;;;16.37;7.67;;;;;;;4.35;93.55;97367.03;5052947;23;20639;-71
2023/01/17 11:56:01;;;;;;;17.73;8.53;;;;;;;4.25;94.20;97378.84;5039325;23;20204;-66
2023/01/17 11:58:28;;;;;;;20.40;8.80;;;;;;;4.35;94.82;97380.19;5056298;23;23541;-73
2023/01/17 12:01:01;;;;;;;16.63;7.97;;;;;;;4.34;95.17;97378.56;5057744;23;20200;-72
2023/01/17 12:03:46;;;;;;;16.17;7.60;;;;;;;4.31;95.79;97380.72;5056772;23;20204;-72
2023/01/17 12:06:18;;;;;;;19.13;8.20;;;;;;;4.32;96.10;97380.56;5022010;23;20474;-71
2023/01/17 12:08:54;;;;;;;15.47;7.37;;;;;;;4.28;94.77;97383.75;5030354;23;20273;-71
2023/01/17 12:11:30;;;;;;;17.13;7.67;;;;;;;4.27;95.16;97382.94;5036931;23;23449;-72
2023/01/17 12:14:13;;;;;;;18.57;8.87;;;;;;;4.28;94.95;97384.53;4999913;23;20478;-71
2023/01/17 12:16:59;;;;;;;16.87;8.20;;;;;;;4.17;95.21;97382.38;5032732;23;20236;-70
2023/01/17 12:19:37;;;;;;;16.20;7.83;;;;;;;4.14;94.74;97374.81;5002467;23;20216;-72
2023/01/17 12:22:39;;;;;;;17.63;8.00;;;;;;;4.09;95.77;97372.72;5023934;23;20205;-72
2023/01/17 12:25:27;;;;;;;17.87;8.63;;;;;;;4.03;96.56;97373.47;5033097;23;20205;-73
2023/01/17 12:28:00;;;;;;;20.67;8.30;;;;;;;4.09;96.27;97379.81;5025475;23;20368;-70
2023/01/17 12:31:00;;;;;;;16.27;7.90;;;;;;;4.10;95.06;97376.22;5018568;23;21369;-72
2023/01/17 12:33:26;;;;;;;20.87;8.87;;;;;;;4.11;95.49;97373.38;5031779;23;20212;-71
2023/01/17 12:36:04;;;;;;;17.23;8.27;;;;;;;4.11;96.24;97368.09;5046707;23;20956;-70
2023/01/17 12:38:36;;;;;;;19.50;8.70;;;;;;;4.13;95.91;97368.75;5042959;23;21924;-72
2023/01/17 12:41:17;;;;;;;18.77;8.70;;;;;;;4.14;96.62;97373.00;5017241;23;23463;-69
2023/01/17 12:43:45;;;;;;;20.50;9.43;;;;;;;4.09;96.55;97370.09;5027839;23;23183;-72
2023/01/17 12:46:19;;;;;;;20.27;9.50;;;;;;;4.13;97.93;97374.00;5014269;23;21713;-73
2023/01/17 12:48:51;;;;;;;21.47;9.57;;;;;;;4.26;97.33;97380.47;5026240;23;20336;-70
2023/01/17 12:51:31;;;;;;;24.87;10.33;;;;;;;4.42;96.86;97388.19;5019328;23;20201;-72
2023/01/17 12:54:07;;;;;;;21.40;9.60;;;;;;;4.46;96.63;97383.41;5003210;23;21365;-70
2023/01/17 12:56:48;;;;;;;23.03;10.47;;;;;;;4.46;95.68;97383.41;5008472;23;20760;-71
2023/01/17 12:59:29;;;;;;;27.00;10.50;;;;;;;4.40;96.44;97385.75;5036699;23;21802;-69
2023/01/17 13:01:57;;;;;;;21.93;10.23;;;;;;;4.39;96.51;97385.94;5025255;23;20213;-71
2023/01/17 13:04:58;;;;;;;20.50;10.43;;;;;;;4.42;96.88;97380.28;5029560;23;22896;-68